createdAt,value
2023-04-25T00:00:29.181Z,50266.40
2023-04-25T00:03:19.830Z,50293.20
2023-04-25T00:05:49.308Z,50288.80
2023-04-25T00:08:17.640Z,50289.59
2023-04-25T00:10:46.737Z,50260.40
2023-04-25T00:13:15.890Z,50275.60
2023-04-25T00:15:44.275Z,50280.79
2023-04-25T00:18:12.554Z,50274.40
2023-04-25T00:20:41.452Z,50297.99
2023-04-25T00:23:09.662Z,50272.80
2023-04-25T00:25:37.889Z,50284.79
2023-04-25T00:28:06.351Z,50286.80
2023-04-25T00:30:34.637Z,50275.60
2023-04-25T00:33:02.922Z,50262.40
2023-04-25T00:35:31.305Z,50257.61
2023-04-25T00:37:59.696Z,50265.60
2023-04-25T00:40:28.921Z,50260.80
2023-04-25T00:42:57.352Z,50283.20
2023-04-25T00:45:30.749Z,50295.59
2023-04-25T00:47:59.655Z,50266.00
2023-04-25T00:50:28.140Z,50270.00
2023-04-25T00:52:56.572Z,50286.40
2023-04-25T00:55:25.117Z,50283.59
2023-04-25T00:57:53.683Z,50275.20
2023-04-25T01:00:22.938Z,50272.40
2023-04-25T01:02:52.753Z,50283.20
2023-04-25T01:05:21.215Z,50291.19
2023-04-25T01:07:50.127Z,50276.40
2023-04-25T01:10:18.526Z,50276.00
2023-04-25T01:12:46.839Z,50278.40
2023-04-25T01:15:15.286Z,50291.20
2023-04-25T01:17:45.433Z,50254.80
2023-04-25T01:20:15.226Z,50281.20
2023-04-25T01:22:44.780Z,50273.20
2023-04-25T01:25:13.110Z,50270.80
2023-04-25T01:27:41.866Z,50274.00
2023-04-25T01:30:10.766Z,50286.00
2023-04-25T01:32:39.837Z,50270.80
2023-04-25T01:35:10.819Z,50277.60
2023-04-25T01:37:40.517Z,50273.60
2023-04-25T01:40:11.689Z,50281.20
2023-04-25T01:42:43.335Z,50275.20
2023-04-25T01:45:12.927Z,50279.60
2023-04-25T01:47:44.088Z,50270.80
2023-04-25T01:50:12.518Z,50285.20
2023-04-25T01:52:41.073Z,50273.20
2023-04-25T01:55:10.902Z,50290.79
2023-04-25T01:57:43.112Z,50294.79
2023-04-25T02:00:12.956Z,50288.39
2023-04-25T02:02:41.517Z,50282.00
2023-04-25T02:05:22.032Z,50270.40
2023-04-25T02:07:50.408Z,50276.80
2023-04-25T02:10:19.388Z,50282.00
2023-04-25T02:13:06.597Z,50278.80
2023-04-25T02:15:53.329Z,50274.00
2023-04-25T02:18:22.603Z,50259.61
2023-04-25T02:20:50.959Z,50286.79
2023-04-25T02:23:20.320Z,50282.40
2023-04-25T02:25:49.445Z,50282.00
2023-04-25T02:28:17.775Z,50272.40
2023-04-25T02:30:46.096Z,50265.21
2023-04-25T02:33:14.409Z,50286.39
2023-04-25T02:35:42.761Z,50284.80
2023-04-25T02:38:11.281Z,50281.99
2023-04-25T02:40:42.175Z,50280.40
2023-04-25T02:43:10.467Z,50278.00
2023-04-25T02:45:38.975Z,50280.40
2023-04-25T02:48:07.482Z,50264.80
2023-04-25T02:50:35.778Z,50284.00
2023-04-25T02:53:04.071Z,50289.99
2023-04-25T02:55:37.455Z,50279.20
2023-04-25T02:58:06.525Z,50291.20
2023-04-25T03:00:41.316Z,50285.20
2023-04-25T03:03:09.698Z,50293.99
2023-04-25T03:05:38.169Z,50282.40
2023-04-25T03:08:07.103Z,50285.20
2023-04-25T03:10:35.766Z,50271.60
2023-04-25T03:13:07.062Z,50290.39
2023-04-25T03:15:36.622Z,50287.59
2023-04-25T03:18:05.209Z,50300.79
2023-04-25T03:20:33.895Z,50294.39
2023-04-25T03:23:02.490Z,50288.39
2023-04-25T03:25:31.660Z,50281.60
2023-04-25T03:28:00.683Z,50285.20
2023-04-25T03:30:29.115Z,50274.80
2023-04-25T03:32:57.384Z,50294.39
2023-04-25T03:35:26.205Z,50290.39
2023-04-25T03:37:55.055Z,50293.99
2023-04-25T03:40:27.830Z,50280.00
2023-04-25T03:43:19.130Z,50282.40
2023-04-25T03:45:53.122Z,50276.40
2023-04-25T03:48:25.876Z,50280.80
2023-04-25T03:50:58.492Z,50276.80
2023-04-25T03:53:26.803Z,50266.40
2023-04-25T03:56:13.760Z,50268.80
2023-04-25T03:58:42.512Z,50271.20
2023-04-25T04:01:10.819Z,50283.20
2023-04-25T04:03:39.768Z,50280.40
2023-04-25T04:06:10.212Z,50293.99
2023-04-25T04:08:41.705Z,50267.20
2023-04-25T04:11:12.108Z,50259.61
2023-04-25T04:13:40.542Z,50269.60
2023-04-25T04:16:09.679Z,50266.80
2023-04-25T04:18:38.467Z,50285.59
2023-04-25T04:21:06.818Z,50282.40
2023-04-25T04:23:39.773Z,50262.80
2023-04-25T04:26:11.255Z,50267.60
2023-04-25T04:28:57.519Z,50277.60
2023-04-25T04:32:02.467Z,50275.20
2023-04-25T04:34:32.241Z,50253.21
2023-04-25T04:37:01.652Z,50266.40
2023-04-25T04:39:30.077Z,50279.99
2023-04-25T04:42:06.346Z,50275.60
2023-04-25T04:44:53.449Z,50281.20
2023-04-25T04:47:41.283Z,50246.01
2023-04-25T04:50:17.419Z,50259.61
2023-04-25T04:53:11.985Z,50255.21
2023-04-25T04:56:07.041Z,50252.80
2023-04-25T04:58:53.672Z,50247.61
2023-04-25T05:01:38.539Z,50253.21
2023-04-25T05:04:22.921Z,50246.41
2023-04-25T05:07:17.884Z,50230.81
2023-04-25T05:10:16.437Z,50245.61
2023-04-25T05:13:21.755Z,50249.61
2023-04-25T05:15:58.952Z,50248.81
2023-04-25T05:18:47.403Z,50246.80
2023-04-25T05:21:32.526Z,50260.80
2023-04-25T05:24:20.986Z,50236.41
2023-04-25T05:27:23.669Z,50244.80
2023-04-25T05:30:10.715Z,50240.01
2023-04-25T05:33:17.666Z,50230.82
2023-04-25T05:35:46.749Z,50242.41
2023-04-25T05:38:16.022Z,50223.21
2023-04-25T05:41:04.639Z,50248.01
2023-04-25T05:43:48.486Z,50234.41
2023-04-25T05:46:25.950Z,50234.01
2023-04-25T05:49:15.384Z,50239.21
2023-04-25T05:52:05.652Z,50218.02
2023-04-25T05:54:55.708Z,50224.41
2023-04-25T05:57:27.222Z,50236.81
2023-04-25T05:59:57.500Z,50223.21
2023-04-25T06:02:42.279Z,50237.21
2023-04-25T06:05:14.742Z,50226.82
2023-04-25T06:07:43.356Z,50225.22
2023-04-25T06:10:12.137Z,50216.82
2023-04-25T06:12:40.670Z,50211.62
2023-04-25T06:15:24.183Z,50213.62
2023-04-25T06:17:57.333Z,50208.82
2023-04-25T06:20:26.049Z,50206.42
2023-04-25T06:22:56.078Z,50208.42
2023-04-25T06:25:32.198Z,50197.23
2023-04-25T06:28:00.926Z,50218.41
2023-04-25T06:30:29.848Z,50196.02
2023-04-25T06:33:05.037Z,50210.42
2023-04-25T06:35:38.256Z,50207.22
2023-04-25T06:38:06.908Z,50206.82
2023-04-25T06:40:35.697Z,50213.22
2023-04-25T06:43:04.272Z,50189.63
2023-04-25T06:45:50.091Z,50206.82
2023-04-25T06:48:18.528Z,50203.62
2023-04-25T06:50:46.904Z,50208.02
2023-04-25T06:53:16.034Z,50205.62
2023-04-25T06:55:45.859Z,50209.22
2023-04-25T06:58:27.412Z,50196.82
2023-04-25T07:01:06.697Z,50201.62
2023-04-25T07:03:35.360Z,50212.42
2023-04-25T07:06:08.457Z,50209.62
2023-04-25T07:08:36.744Z,50196.82
2023-04-25T07:11:05.021Z,50196.82
2023-04-25T07:13:33.814Z,50191.23
2023-04-25T07:16:02.623Z,50200.82
2023-04-25T07:18:32.362Z,50189.23
2023-04-25T07:21:03.717Z,50190.43
2023-04-25T07:23:32.610Z,50191.23
2023-04-25T07:26:02.542Z,50196.02
2023-04-25T07:28:31.480Z,50166.44
2023-04-25T07:31:00.159Z,50180.03
2023-04-25T07:33:28.662Z,50193.23
2023-04-25T07:35:57.234Z,50178.83
2023-04-25T07:38:25.888Z,50169.64
2023-04-25T07:40:54.127Z,50185.23
2023-04-25T07:43:22.788Z,50186.83
2023-04-25T07:45:58.068Z,50192.43
2023-04-25T07:48:28.253Z,50180.03
2023-04-25T07:50:56.562Z,50193.23
2023-04-25T07:53:23.598Z,50183.23
2023-04-25T07:55:58.188Z,50182.43
2023-04-25T07:58:26.620Z,50179.23
2023-04-25T08:01:02.147Z,50183.63
2023-04-25T08:03:36.808Z,50176.43
2023-04-25T08:06:08.923Z,50186.82
2023-04-25T08:08:44.658Z,50171.64
2023-04-25T08:11:14.941Z,50194.82
2023-04-25T08:13:43.216Z,50199.63
2023-04-25T08:16:11.507Z,50188.83
2023-04-25T08:18:39.785Z,50201.62
2023-04-25T08:21:10.093Z,50197.63
2023-04-25T08:23:38.999Z,50196.82
2023-04-25T08:26:24.757Z,50208.82
2023-04-25T08:28:53.781Z,50214.82
2023-04-25T08:31:22.143Z,50212.82
2023-04-25T08:33:58.257Z,50186.83
2023-04-25T08:36:47.751Z,50197.63
2023-04-25T08:39:30.924Z,50199.63
2023-04-25T08:42:20.418Z,50212.42
2023-04-25T08:44:54.789Z,50201.23
2023-04-25T08:47:27.766Z,50202.02
2023-04-25T08:50:01.575Z,50198.43
2023-04-25T08:52:37.354Z,50198.82
2023-04-25T08:55:10.417Z,50202.02
2023-04-25T08:57:44.166Z,50189.62
2023-04-25T09:00:14.069Z,50197.23
2023-04-25T09:02:45.412Z,50207.62
2023-04-25T09:05:15.741Z,50194.82
2023-04-25T09:07:44.970Z,50186.43
2023-04-25T09:10:14.774Z,50197.23
2023-04-25T09:12:43.552Z,50179.23
2023-04-25T09:15:20.538Z,50189.63
2023-04-25T09:17:59.971Z,50194.82
2023-04-25T09:23:22.526Z,50200.82
2023-04-25T09:25:55.097Z,50185.23
2023-04-25T09:28:30.100Z,50184.43
2023-04-25T09:31:00.024Z,50189.63
2023-04-25T09:33:38.002Z,50196.43
2023-04-25T09:36:13.715Z,50174.43
2023-04-25T09:39:02.413Z,50175.23
2023-04-25T09:41:39.910Z,50175.63
2023-04-25T09:44:09.468Z,50169.23
2023-04-25T09:46:40.073Z,50175.23
2023-04-25T09:49:16.533Z,50177.63
2023-04-25T09:52:10.801Z,50170.04
2023-04-25T09:55:02.184Z,50167.63
2023-04-25T09:57:34.429Z,50178.43
2023-04-25T10:00:06.082Z,50175.24
2023-04-25T10:02:48.293Z,50200.43
2023-04-25T10:05:53.556Z,50184.83
2023-04-25T10:08:23.582Z,50195.63
2023-04-25T10:10:52.083Z,50182.83
2023-04-25T10:13:20.975Z,50183.63
2023-04-25T10:15:50.205Z,50196.02
2023-04-25T10:18:21.122Z,50188.82
2023-04-25T10:20:49.431Z,50190.82
2023-04-25T10:23:20.798Z,50186.03
2023-04-25T10:25:52.389Z,50182.83
2023-04-25T10:28:22.021Z,50188.83
2023-04-25T10:31:08.767Z,50195.63
2023-04-25T10:33:43.254Z,50173.63
2023-04-25T10:36:16.804Z,50192.82
2023-04-25T10:38:46.615Z,50193.63
2023-04-25T10:41:15.371Z,50192.02
2023-04-25T10:43:46.393Z,50183.23
2023-04-25T10:46:23.587Z,50196.02
2023-04-25T10:48:57.046Z,50184.43
2023-04-25T10:51:43.268Z,50179.23
2023-04-25T10:54:13.237Z,50196.02
2023-04-25T10:56:45.671Z,50196.43
2023-04-25T10:59:18.461Z,50193.23
2023-04-25T11:01:50.365Z,50178.43
2023-04-25T11:04:30.232Z,50172.43
2023-04-25T11:07:18.715Z,50185.23
2023-04-25T11:09:50.116Z,50184.43
2023-04-25T11:12:18.736Z,50176.03
2023-04-25T11:14:47.133Z,50176.83
2023-04-25T11:17:16.682Z,50184.03
2023-04-25T11:19:51.081Z,50172.83
2023-04-25T11:22:19.419Z,50181.63
2023-04-25T11:24:48.101Z,50172.43
2023-04-25T11:27:16.786Z,50193.63
2023-04-25T11:29:45.056Z,50166.04
2023-04-25T11:32:13.441Z,50164.84
2023-04-25T11:34:46.743Z,50172.04
2023-04-25T11:37:16.122Z,50176.43
2023-04-25T11:39:47.216Z,50167.23
2023-04-25T11:42:15.780Z,50190.82
2023-04-25T11:44:44.772Z,50172.83
2023-04-25T11:47:13.047Z,50178.43
2023-04-25T11:49:44.220Z,50171.63
2023-04-25T11:52:13.110Z,50185.23
2023-04-25T11:54:42.364Z,50178.83
2023-04-25T11:57:10.773Z,50178.43
2023-04-25T11:59:39.175Z,50173.23
2023-04-25T12:02:08.206Z,50168.84
2023-04-25T12:04:37.140Z,50191.23
2023-04-25T12:07:06.286Z,50174.04
2023-04-25T12:09:34.940Z,50189.23
2023-04-25T12:12:04.245Z,50173.63
2023-04-25T12:14:35.409Z,50171.63
2023-04-25T12:17:06.456Z,50175.63
2023-04-25T12:19:42.358Z,50184.43
2023-04-25T12:22:25.222Z,50182.43
2023-04-25T12:24:55.424Z,50176.03
2023-04-25T12:27:28.044Z,50183.63
2023-04-25T12:29:57.908Z,50176.83
2023-04-25T12:32:27.653Z,50157.64
2023-04-25T12:34:56.461Z,50175.23
2023-04-25T12:37:24.736Z,50166.44
2023-04-25T12:39:53.898Z,50166.83
2023-04-25T12:42:22.842Z,50162.04
2023-04-25T12:44:51.079Z,50143.24
2023-04-25T12:47:19.305Z,50167.24
2023-04-25T12:49:47.571Z,50154.44
2023-04-25T12:52:15.830Z,50164.84
2023-04-25T12:54:44.191Z,50144.45
2023-04-25T12:57:12.698Z,50168.04
2023-04-25T12:59:40.963Z,50150.04
2023-04-25T13:02:09.470Z,50158.84
2023-04-25T13:04:38.239Z,50148.44
2023-04-25T13:07:07.593Z,50159.64
2023-04-25T13:09:35.961Z,50162.84
2023-04-25T13:12:07.498Z,50156.04
2023-04-25T13:14:36.725Z,50157.64
2023-04-25T13:17:07.530Z,50154.04
2023-04-25T13:19:37.050Z,50157.24
2023-04-25T13:22:07.413Z,50144.84
2023-04-25T13:24:35.674Z,50172.04
2023-04-25T13:27:07.109Z,50148.04
2023-04-25T13:30:00.830Z,50155.24
2023-04-25T13:32:29.255Z,50162.04
2023-04-25T13:34:58.163Z,50142.84
2023-04-25T13:37:26.422Z,50152.04
2023-04-25T13:39:56.716Z,50155.24
2023-04-25T13:42:25.239Z,50149.64
2023-04-25T13:44:56.164Z,50168.84
2023-04-25T13:47:24.605Z,50140.84
2023-04-25T13:49:52.976Z,50152.84
2023-04-25T13:52:23.314Z,50165.64
2023-04-25T13:54:52.463Z,50150.84
2023-04-25T13:57:20.885Z,50164.43
2023-04-25T13:59:49.528Z,50172.04
2023-04-25T14:02:17.720Z,50147.64
2023-04-25T14:04:47.165Z,50152.44
2023-04-25T14:07:20.562Z,50161.24
2023-04-25T14:09:48.837Z,50161.24
2023-04-25T14:12:18.848Z,50167.23
2023-04-25T14:14:47.151Z,50170.03
2023-04-25T14:17:15.394Z,50174.83
2023-04-25T14:19:46.840Z,50171.24
2023-04-25T14:22:20.324Z,50164.84
2023-04-25T14:24:49.746Z,50160.84
2023-04-25T14:27:18.798Z,50169.64
2023-04-25T14:29:47.604Z,50167.24
2023-04-25T14:32:16.659Z,50170.03
2023-04-25T14:34:46.794Z,50177.23
2023-04-25T14:37:16.907Z,50176.83
2023-04-25T14:39:46.436Z,50156.84
2023-04-25T14:42:14.867Z,50166.04
2023-04-25T14:44:43.198Z,50182.03
2023-04-25T14:47:11.852Z,50187.23
2023-04-25T14:49:40.226Z,50181.63
2023-04-25T14:52:09.258Z,50185.23
2023-04-25T14:54:37.716Z,50193.63
2023-04-25T14:57:05.933Z,50194.43
2023-04-25T14:59:34.489Z,50204.82
2023-04-25T15:02:02.938Z,50186.02
2023-04-25T15:04:32.274Z,50188.03
2023-04-25T15:07:00.748Z,50172.43
2023-04-25T15:09:29.730Z,50193.63
2023-04-25T15:12:00.510Z,50182.83
2023-04-25T15:14:28.964Z,50191.63
2023-04-25T15:16:57.691Z,50201.23
2023-04-25T15:19:26.226Z,50186.83
2023-04-25T15:21:54.727Z,50177.63
2023-04-25T15:24:24.360Z,50197.23
2023-04-25T15:26:56.339Z,50181.63
2023-04-25T15:29:25.681Z,50195.63
2023-04-25T15:31:54.661Z,50198.02
2023-04-25T15:34:25.887Z,50202.43
2023-04-25T15:36:54.428Z,50178.03
2023-04-25T15:39:25.074Z,50176.83
2023-04-25T15:41:53.331Z,50175.63
2023-04-25T15:44:21.743Z,50185.63
2023-04-25T15:46:52.132Z,50192.43
2023-04-25T15:49:22.566Z,50207.62
2023-04-25T15:51:51.879Z,50195.63
2023-04-25T15:54:20.663Z,50195.22
2023-04-25T15:56:48.848Z,50198.43
2023-04-25T15:59:17.816Z,50181.23
2023-04-25T16:01:46.122Z,50192.43
2023-04-25T16:04:14.664Z,50190.03
2023-04-25T16:06:45.250Z,50196.43
2023-04-25T16:09:15.270Z,50188.82
2023-04-25T16:11:43.690Z,50198.43
2023-04-25T16:14:12.400Z,50198.02
2023-04-25T16:16:40.852Z,50208.42
2023-04-25T16:19:09.377Z,50189.63
2023-04-25T16:21:38.340Z,50219.21
2023-04-25T16:24:06.929Z,50205.22
2023-04-25T16:26:35.245Z,50202.82
2023-04-25T16:29:06.202Z,50212.42
2023-04-25T16:31:36.713Z,50214.41
2023-04-25T16:34:05.300Z,50214.82
2023-04-25T16:36:33.789Z,50222.41
2023-04-25T16:39:02.002Z,50219.22
2023-04-25T16:41:30.560Z,50217.62
2023-04-25T16:43:58.783Z,50211.62
2023-04-25T16:46:28.084Z,50221.21
2023-04-25T16:48:57.688Z,50200.02
2023-04-25T16:51:26.441Z,50229.21
2023-04-25T16:53:56.371Z,50214.02
2023-04-25T16:56:24.874Z,50218.82
2023-04-25T16:58:53.561Z,50217.22
2023-04-25T17:01:23.205Z,50223.61
2023-04-25T17:03:52.050Z,50221.22
2023-04-25T17:06:22.269Z,50227.21
2023-04-25T17:08:51.392Z,50219.22
2023-04-25T17:11:20.432Z,50224.41
2023-04-25T17:13:48.852Z,50222.81
2023-04-25T17:16:23.196Z,50222.42
2023-04-25T17:18:52.640Z,50228.82
2023-04-25T17:21:22.444Z,50222.82
2023-04-25T17:23:52.973Z,50233.61
2023-04-25T17:26:21.275Z,50216.82
2023-04-25T17:28:50.021Z,50218.42
2023-04-25T17:31:19.374Z,50221.62
2023-04-25T17:33:49.607Z,50220.41
2023-04-25T17:36:19.234Z,50236.41
2023-04-25T17:38:47.698Z,50224.41
2023-04-25T17:41:15.981Z,50227.61
2023-04-25T17:43:44.181Z,50220.82
2023-04-25T17:46:12.451Z,50257.20
2023-04-25T17:48:40.730Z,50234.01
2023-04-25T17:51:11.483Z,50244.41
2023-04-25T17:53:40.087Z,50218.82
2023-04-25T17:56:25.315Z,50226.01
2023-04-25T17:58:54.874Z,50247.21
2023-04-25T18:01:23.552Z,50242.41
2023-04-25T18:03:52.338Z,50241.61
2023-04-25T18:06:20.852Z,50236.41
2023-04-25T18:08:49.918Z,50225.21
2023-04-25T18:11:19.840Z,50233.61
2023-04-25T18:13:48.013Z,50245.61
2023-04-25T18:16:18.858Z,50254.80
2023-04-25T18:18:53.558Z,50237.61
2023-04-25T18:21:30.077Z,50238.41
2023-04-25T18:23:58.328Z,50240.80
2023-04-25T18:26:26.571Z,50233.61
2023-04-25T18:28:54.885Z,50219.22
2023-04-25T18:31:25.421Z,50227.61
2023-04-25T18:33:53.902Z,50226.01
2023-04-25T18:36:22.408Z,50249.61
2023-04-25T18:38:56.525Z,50232.81
2023-04-25T18:41:51.963Z,50231.61
2023-04-25T18:44:19.888Z,50235.21
2023-04-25T18:46:48.103Z,50234.81
2023-04-25T18:49:16.328Z,50240.81
2023-04-25T18:51:47.131Z,50222.02
2023-04-25T18:54:15.339Z,50229.21
2023-04-25T18:56:43.539Z,50232.81
2023-04-25T18:59:12.218Z,50238.01
2023-04-25T19:01:40.492Z,50239.61
2023-04-25T19:04:09.853Z,50234.41
2023-04-25T19:06:38.262Z,50232.01
2023-04-25T19:09:10.173Z,50246.80
2023-04-25T19:11:38.956Z,50238.41
2023-04-25T19:14:07.248Z,50221.61
2023-04-25T19:16:39.347Z,50214.82
2023-04-25T19:19:09.531Z,50237.61
2023-04-25T19:21:38.403Z,50221.22
2023-04-25T19:24:08.818Z,50234.41
2023-04-25T19:26:38.354Z,50228.02
2023-04-25T19:29:12.811Z,50236.81
2023-04-25T19:31:43.511Z,50221.21
2023-04-25T19:34:14.782Z,50240.01
2023-04-25T19:36:44.247Z,50243.61
2023-04-25T19:39:13.380Z,50236.41
2023-04-25T19:41:41.845Z,50230.02
2023-04-25T19:44:12.230Z,50222.41
2023-04-25T19:46:42.302Z,50226.81
2023-04-25T19:49:10.843Z,50230.02
2023-04-25T19:51:40.640Z,50233.21
2023-04-25T19:54:10.871Z,50247.21
2023-04-25T19:56:39.571Z,50234.01
2023-04-25T19:59:10.451Z,50235.61
2023-04-25T20:01:38.706Z,50241.21
2023-04-25T20:04:07.189Z,50246.41
2023-04-25T20:06:37.070Z,50248.81
2023-04-25T20:09:06.554Z,50228.41
2023-04-25T20:11:34.853Z,50231.21
2023-04-25T20:14:03.264Z,50236.01
2023-04-25T20:16:32.384Z,50234.81
2023-04-25T20:19:01.773Z,50241.61
2023-04-25T20:21:30.288Z,50260.00
2023-04-25T20:23:58.650Z,50263.20
2023-04-25T20:26:28.223Z,50243.21
2023-04-25T20:28:59.909Z,50240.41
2023-04-25T20:31:28.370Z,50242.41
2023-04-25T20:33:56.678Z,50238.41
2023-04-25T20:36:25.150Z,50243.21
2023-04-25T20:38:54.051Z,50237.21
2023-04-25T20:41:22.804Z,50232.41
2023-04-25T20:43:54.420Z,50242.01
2023-04-25T20:46:22.671Z,50240.01
2023-04-25T20:48:53.018Z,50252.01
2023-04-25T20:51:21.684Z,50241.21
2023-04-25T20:53:49.867Z,50250.41
2023-04-25T20:56:19.134Z,50244.01
2023-04-25T20:58:47.524Z,50231.61
2023-04-25T21:01:15.810Z,50244.01
2023-04-25T21:03:45.244Z,50246.41
2023-04-25T21:06:13.696Z,50249.61
2023-04-25T21:08:41.856Z,50259.21
2023-04-25T21:11:10.097Z,50257.21
2023-04-25T21:13:38.442Z,50248.01
2023-04-25T21:16:07.383Z,50249.61
2023-04-25T21:18:35.726Z,50261.60
2023-04-25T21:21:04.580Z,50256.00
2023-04-25T21:23:35.423Z,50251.21
2023-04-25T21:26:03.946Z,50252.41
2023-04-25T21:28:32.309Z,50237.21
2023-04-25T21:31:00.874Z,50254.01
2023-04-25T21:33:29.077Z,50247.61
2023-04-25T21:35:57.457Z,50251.61
2023-04-25T21:38:25.627Z,50254.01
2023-04-25T21:40:53.880Z,50257.20
2023-04-25T21:43:22.044Z,50267.60
2023-04-25T21:46:11.437Z,50244.01
2023-04-25T21:48:39.492Z,50258.80
2023-04-25T21:51:07.829Z,50254.41
2023-04-25T21:53:36.826Z,50261.60
2023-04-25T21:56:05.209Z,50267.20
2023-04-25T21:58:33.374Z,50250.41
2023-04-25T22:01:01.857Z,50265.20
2023-04-25T22:03:30.140Z,50252.80
2023-04-25T22:05:58.990Z,50256.80
2023-04-25T22:08:27.178Z,50262.80
2023-04-25T22:10:55.448Z,50253.20
2023-04-25T22:13:23.744Z,50266.00
2023-04-25T22:15:52.855Z,50245.61
2023-04-25T22:18:22.420Z,50267.60
2023-04-25T22:20:50.576Z,50266.40
2023-04-25T22:23:19.260Z,50270.00
2023-04-25T22:25:47.552Z,50270.80
2023-04-25T22:28:15.802Z,50258.40
2023-04-25T22:30:44.059Z,50241.21
2023-04-25T22:33:12.399Z,50255.21
2023-04-25T22:35:41.067Z,50262.01
2023-04-25T22:38:09.789Z,50244.80
2023-04-25T22:40:38.154Z,50242.01
2023-04-25T22:43:06.618Z,50240.41
2023-04-25T22:45:36.006Z,50253.61
2023-04-25T22:48:04.640Z,50259.20
2023-04-25T22:50:34.337Z,50262.40
2023-04-25T22:53:04.221Z,50268.00
2023-04-25T22:55:32.445Z,50259.20
2023-04-25T22:58:00.646Z,50263.60
2023-04-25T23:00:30.498Z,50281.20
2023-04-25T23:02:59.581Z,50257.21
2023-04-25T23:05:28.327Z,50258.80
2023-04-25T23:07:57.864Z,50260.80
2023-04-25T23:10:28.330Z,50258.80
2023-04-25T23:13:00.490Z,50250.01
2023-04-25T23:15:31.140Z,50244.41
2023-04-25T23:17:59.455Z,50261.60
2023-04-25T23:20:27.798Z,50247.61
2023-04-25T23:22:56.121Z,50256.01
2023-04-25T23:25:24.738Z,50253.61
2023-04-25T23:27:53.102Z,50252.80
2023-04-25T23:30:21.642Z,50258.01
2023-04-25T23:32:50.101Z,50251.21
2023-04-25T23:35:18.370Z,50257.21
2023-04-25T23:37:49.146Z,50272.00
2023-04-25T23:40:17.377Z,50260.01
2023-04-25T23:42:45.667Z,50256.80
2023-04-25T23:45:16.009Z,50260.80
2023-04-25T23:47:44.269Z,50263.21
2023-04-25T23:50:12.640Z,50255.61
2023-04-25T23:52:43.957Z,50264.00
2023-04-25T23:55:13.678Z,50256.80
2023-04-25T23:57:44.585Z,50268.40
